Time;durP1;ratioP1;P1;durP2;ratioP2;P2;SDS_P1;SDS_P2;PMS_P1;PMS_P2;Temp;Humidity;BMP_temperature;BMP_pressure;BME280_temperature;BME280_humidity;BME280_pressure;Samples;Min_cycle;Max_cycle;Signal;HPM_P1;HPM_P2
2022/04/14 00:01:16;;;;;;;6.80;5.07;;;;;14.50;101476.00;;;;4926447;28;20904;-69
2022/04/14 00:04:04;;;;;;;8.70;4.83;;;;;14.50;101473.00;;;;4910757;29;20289;-70
2022/04/14 00:06:50;;;;;;;9.63;5.27;;;;;14.50;101471.00;;;;4907148;29;20409;-69
2022/04/14 00:09:36;;;;;;;11.07;5.97;;;;;14.50;101471.00;;;;4913859;28;20226;-69
2022/04/14 00:12:23;;;;;;;9.93;6.07;;;;;14.50;101458.00;;;;4912454;28;20308;-68
2022/04/14 00:15:11;;;;;;;10.63;6.33;;;;;14.50;101458.00;;;;4910986;29;20244;-68
2022/04/14 00:17:57;;;;;;;9.13;5.80;;;;;14.40;101471.00;;;;4911390;29;20306;-70
2022/04/14 00:20:45;;;;;;;10.23;6.57;;;;;14.50;101458.00;;;;4908467;29;20240;-70
2022/04/14 00:23:31;;;;;;;11.37;6.83;;;;;14.40;101468.00;;;;4919745;28;20223;-69
2022/04/14 00:26:18;;;;;;;14.10;7.23;;;;;14.40;101469.00;;;;4921568;28;20597;-68
2022/04/14 00:29:04;;;;;;;12.80;7.23;;;;;14.40;101465.00;;;;4927446;28;20241;-69
2022/04/14 00:31:50;;;;;;;12.67;7.10;;;;;14.50;101467.00;;;;4926864;28;20775;-70
2022/04/14 00:34:36;;;;;;;10.73;6.87;;;;;14.40;101463.00;;;;4915922;28;20288;-70
2022/04/14 00:37:23;;;;;;;12.50;6.87;;;;;14.40;101465.00;;;;4908337;29;20273;-69
2022/04/14 00:40:11;;;;;;;12.17;7.00;;;;;14.30;101454.00;;;;4908160;29;20731;-70
2022/04/14 00:42:57;;;;;;;14.90;7.07;;;;;14.30;101458.00;;;;4913701;28;20368;-72
2022/04/14 00:45:44;;;;;;;13.23;6.90;;;;;14.30;101436.00;;;;4909654;29;20305;-68
2022/04/14 00:48:32;;;;;;;13.20;7.50;;;;;14.30;101436.00;;;;4911766;29;20615;-69
2022/04/14 00:51:18;;;;;;;14.70;8.03;;;;;14.30;101429.00;;;;4911461;29;20240;-70
2022/04/14 00:54:06;;;;;;;13.47;7.67;;;;;14.30;101430.00;;;;4910194;29;20560;-68
2022/04/14 00:56:52;;;;;;;13.27;7.40;;;;;14.30;101420.00;;;;4911075;28;20237;-68
2022/04/14 00:59:39;;;;;;;14.07;7.93;;;;;14.30;101414.00;;;;4909079;29;20236;-69
2022/04/14 01:02:25;;;;;;;13.43;7.97;;;;;14.30;101422.00;;;;4911009;29;20226;-68
2022/04/14 01:05:13;;;;;;;11.60;7.37;;;;;14.20;101434.00;;;;4909824;29;20593;-68
2022/04/14 01:08:00;;;;;;;12.93;7.97;;;;;14.20;101443.00;;;;4922115;28;20769;-71
2022/04/14 01:10:49;;;;;;;14.50;8.03;;;;;14.20;101453.00;;;;4908254;29;20235;-68
2022/04/14 01:13:36;;;;;;;14.90;8.30;;;;;14.20;101451.00;;;;4916296;28;20366;-68
2022/04/14 01:16:22;;;;;;;15.80;8.87;;;;;14.20;101433.00;;;;4910592;29;20622;-69
2022/04/14 01:19:08;;;;;;;15.80;8.67;;;;;14.20;101438.00;;;;4920316;28;20248;-68
2022/04/14 01:22:01;;;;;;;15.93;8.73;;;;;14.00;101430.00;;;;4923171;28;20277;-68
2022/04/14 01:24:48;;;;;;;13.73;8.03;;;;;14.10;101448.00;;;;4924205;28;20235;-69
2022/04/14 01:27:34;;;;;;;15.93;8.50;;;;;14.00;101436.00;;;;4907523;29;20228;-69
2022/04/14 01:30:21;;;;;;;12.53;7.57;;;;;14.00;101430.00;;;;4907727;29;20243;-69
2022/04/14 01:33:08;;;;;;;13.90;7.87;;;;;14.00;101431.00;;;;4918557;28;20226;-69
2022/04/14 01:35:54;;;;;;;12.83;7.87;;;;;13.90;101412.00;;;;4924666;28;20245;-68
2022/04/14 01:38:40;;;;;;;16.77;8.73;;;;;14.00;101411.00;;;;4922742;28;20336;-69
2022/04/14 01:41:28;;;;;;;19.43;8.63;;;;;14.00;101424.00;;;;4929837;28;20719;-68
2022/04/14 01:44:14;;;;;;;17.10;9.53;;;;;13.90;101421.00;;;;4930013;28;20245;-68
2022/04/14 01:47:01;;;;;;;12.00;7.37;;;;;13.90;101415.00;;;;4912923;28;20773;-70
2022/04/14 01:49:47;;;;;;;13.63;8.63;;;;;13.80;101412.00;;;;4910366;29;20285;-70
2022/04/14 01:52:34;;;;;;;14.03;8.57;;;;;13.80;101416.00;;;;4920857;28;20377;-69
2022/04/14 01:55:20;;;;;;;14.43;8.07;;;;;13.80;101419.00;;;;4929160;28;20348;-69
2022/04/14 01:58:08;;;;;;;13.20;7.83;;;;;13.80;101427.00;;;;4927662;28;20309;-69
2022/04/14 02:00:55;;;;;;;16.83;8.93;;;;;13.80;101427.00;;;;4929623;28;20234;-69
2022/04/14 02:03:41;;;;;;;14.43;8.60;;;;;13.60;101408.00;;;;4922679;28;20241;-69
2022/04/14 02:06:28;;;;;;;15.30;8.80;;;;;13.70;101419.00;;;;4911612;29;20650;-68
2022/04/14 02:09:14;;;;;;;16.77;9.07;;;;;13.70;101408.00;;;;4910528;29;20246;-69
2022/04/14 02:12:00;;;;;;;15.77;8.63;;;;;13.70;101407.00;;;;4915414;29;20233;-69
2022/04/14 02:14:48;;;;;;;17.77;8.57;;;;;13.70;101406.00;;;;4917056;29;20744;-69
2022/04/14 02:17:34;;;;;;;13.03;8.13;;;;;13.70;101419.00;;;;4910588;29;20241;-68
2022/04/14 02:20:21;;;;;;;13.27;7.83;;;;;13.60;101422.00;;;;4920549;28;20226;-68
2022/04/14 02:23:08;;;;;;;13.37;7.97;;;;;13.60;101390.00;;;;4912833;29;20229;-69
2022/04/14 02:25:54;;;;;;;14.90;7.97;;;;;13.60;101420.00;;;;4912516;29;20666;-68
2022/04/14 02:28:40;;;;;;;12.90;7.70;;;;;13.60;101422.00;;;;4921792;28;20646;-69
2022/04/14 02:31:28;;;;;;;13.70;7.90;;;;;13.50;101430.00;;;;4912006;29;20707;-68
2022/04/14 02:34:14;;;;;;;14.33;7.73;;;;;13.50;101423.00;;;;4910577;29;20248;-69
2022/04/14 02:37:00;;;;;;;15.63;8.63;;;;;13.40;101393.00;;;;4911077;28;20229;-67
2022/04/14 02:39:46;;;;;;;15.77;7.70;;;;;13.40;101401.00;;;;4912514;28;20791;-67
2022/04/14 02:42:33;;;;;;;15.23;8.10;;;;;13.40;101410.00;;;;4913066;28;20245;-68
2022/04/14 02:45:19;;;;;;;16.30;8.83;;;;;13.40;101404.00;;;;4925462;29;20240;-65
2022/04/14 02:48:08;;;;;;;16.70;8.73;;;;;13.30;101409.00;;;;4916186;28;20248;-68
2022/04/14 02:50:54;;;;;;;13.33;7.43;;;;;13.40;101414.00;;;;4909847;29;20675;-65
2022/04/14 02:53:40;;;;;;;15.80;7.70;;;;;13.40;101413.00;;;;4921220;28;20304;-65
2022/04/14 02:56:27;;;;;;;15.90;8.50;;;;;13.30;101418.00;;;;4928035;28;20272;-68
2022/04/14 02:59:13;;;;;;;12.53;7.30;;;;;13.30;101419.00;;;;4921132;28;20362;-68
2022/04/14 03:01:59;;;;;;;14.50;7.80;;;;;13.20;101415.00;;;;4923072;28;20244;-68
2022/04/14 03:04:47;;;;;;;16.53;8.17;;;;;13.20;101406.00;;;;4921632;28;20340;-68
2022/04/14 03:07:33;;;;;;;13.30;7.40;;;;;13.20;101415.00;;;;4928316;28;20233;-66
2022/04/14 03:10:20;;;;;;;15.87;7.93;;;;;13.20;101416.00;;;;4928493;28;20296;-68
2022/04/14 03:13:06;;;;;;;17.37;8.30;;;;;13.20;101424.00;;;;4914323;28;20861;-67
2022/04/14 03:15:52;;;;;;;16.03;8.33;;;;;13.10;101408.00;;;;4922368;28;20293;-69
2022/04/14 03:18:38;;;;;;;15.17;8.27;;;;;13.20;101406.00;;;;4916419;28;20357;-68
2022/04/14 03:21:26;;;;;;;12.73;8.53;;;;;13.10;101416.00;;;;4918031;28;20861;-68
2022/04/14 03:24:12;;;;;;;16.60;7.67;;;;;13.20;101421.00;;;;4923840;28;20631;-66
2022/04/14 03:26:59;;;;;;;12.20;7.20;;;;;13.10;101412.00;;;;4908925;29;20237;-68
2022/04/14 03:29:45;;;;;;;14.53;8.03;;;;;13.10;101419.00;;;;4920751;28;20312;-68
2022/04/14 03:32:31;;;;;;;18.97;8.83;;;;;13.10;101412.00;;;;4911183;29;20883;-70
2022/04/14 03:35:18;;;;;;;13.63;8.37;;;;;13.10;101408.00;;;;4916572;29;20241;-69
2022/04/14 03:38:06;;;;;;;15.80;8.33;;;;;13.00;101410.00;;;;4921967;28;20244;-68
2022/04/14 03:41:12;;;;;;;13.53;7.73;;;;;13.00;101410.00;;;;4923855;28;20316;-68
2022/04/14 03:43:58;;;;;;;13.57;7.87;;;;;13.10;101415.00;;;;4922374;28;20237;-67
2022/04/14 03:46:44;;;;;;;13.70;8.20;;;;;13.00;86005.00;;;;4918975;28;20234;-67
2022/04/14 03:49:30;;;;;;;15.10;8.27;;;;;12.90;101411.00;;;;4908489;29;20369;-65
2022/04/14 03:52:17;;;;;;;14.70;7.87;;;;;12.90;101417.00;;;;4910938;29;20281;-67
2022/04/14 03:55:06;;;;;;;16.07;8.17;;;;;12.90;101384.00;;;;4919536;28;20245;-69
2022/04/14 03:57:53;;;;;;;13.83;8.50;;;;;12.80;101418.00;;;;4918646;28;20240;-69
2022/04/14 04:00:39;;;;;;;16.70;8.00;;;;;12.80;101426.00;;;;4927183;28;20232;-68
2022/04/14 04:03:25;;;;;;;14.07;8.47;;;;;12.80;101425.00;;;;4926413;28;20227;-68
2022/04/14 04:06:12;;;;;;;17.83;7.87;;;;;12.90;101422.00;;;;4913976;28;20237;-68
2022/04/14 04:08:58;;;;;;;15.03;8.37;;;;;12.80;101414.00;;;;4923562;28;20240;-70
2022/04/14 04:11:45;;;;;;;17.03;8.20;;;;;12.80;101428.00;;;;4927230;28;20256;-69
2022/04/14 04:14:32;;;;;;;15.50;8.20;;;;;12.80;101435.00;;;;4926979;28;20592;-69
2022/04/14 04:17:19;;;;;;;17.20;8.90;;;;;12.80;101432.00;;;;4925306;28;20241;-70
2022/04/14 04:20:06;;;;;;;19.23;8.77;;;;;12.90;101435.00;;;;4918223;28;20241;-70
2022/04/14 04:22:52;;;;;;;14.70;8.83;;;;;12.90;101437.00;;;;4921026;28;20292;-70
2022/04/14 04:25:38;;;;;;;18.97;9.07;;;;;13.00;101441.00;;;;4910244;28;20301;-70
2022/04/14 04:28:30;;;;;;;18.93;9.27;;;;;12.80;101432.00;;;;4910504;29;20717;-70
2022/04/14 04:31:16;;;;;;;18.37;8.27;;;;;12.90;101429.00;;;;4908481;29;20313;-70
2022/04/14 04:34:03;;;;;;;17.33;8.10;;;;;13.00;101430.00;;;;4921580;28;20398;-71
2022/04/14 04:36:49;;;;;;;15.23;8.77;;;;;12.90;101434.00;;;;4907942;29;20601;-70
2022/04/14 04:39:35;;;;;;;16.53;9.30;;;;;12.90;101439.00;;;;4908006;29;20237;-69
2022/04/14 04:42:22;;;;;;;18.33;9.03;;;;;12.90;101446.00;;;;4908312;29;20302;-70
2022/04/14 04:45:10;;;;;;;20.00;9.70;;;;;12.90;101453.00;;;;4922015;28;20293;-69
2022/04/14 04:47:56;;;;;;;15.33;8.93;;;;;13.00;101448.00;;;;4919901;28;21043;-69
2022/04/14 04:50:42;;;;;;;16.03;8.83;;;;;13.00;101450.00;;;;4916429;28;20232;-70
2022/04/14 04:53:28;;;;;;;17.33;9.80;;;;;13.00;101449.00;;;;4920751;28;20857;-69
2022/04/14 04:56:15;;;;;;;21.83;10.00;;;;;13.10;101459.00;;;;4908043;29;20255;-69
2022/04/14 04:59:01;;;;;;;19.07;9.63;;;;;13.10;101463.00;;;;4920952;28;20748;-70
2022/04/14 05:01:49;;;;;;;18.97;9.93;;;;;13.10;101463.00;;;;4916020;28;20603;-70
2022/04/14 05:04:35;;;;;;;16.50;8.83;;;;;13.10;101466.00;;;;4921303;28;20237;-70
2022/04/14 05:07:21;;;;;;;16.67;9.57;;;;;13.20;101478.00;;;;4930002;28;20880;-70
2022/04/14 05:10:08;;;;;;;17.60;9.70;;;;;13.20;101477.00;;;;4922438;28;20245;-69
2022/04/14 05:12:55;;;;;;;24.37;11.67;;;;;13.30;101480.00;;;;4923698;28;20239;-70
2022/04/14 05:15:41;;;;;;;24.93;12.03;;;;;13.30;101478.00;;;;4930555;28;20968;-69
2022/04/14 05:18:29;;;;;;;22.23;11.83;;;;;13.40;101470.00;;;;4922435;28;20245;-69
2022/04/14 05:21:15;;;;;;;28.07;11.97;;;;;13.50;101470.00;;;;4911580;29;20249;-68
2022/04/14 05:24:01;;;;;;;25.23;12.10;;;;;13.50;101464.00;;;;4921338;28;20238;-69
2022/04/14 05:26:47;;;;;;;30.73;14.60;;;;;13.50;101475.00;;;;4916362;28;20244;-69
2022/04/14 05:29:35;;;;;;;31.10;13.47;;;;;13.50;101481.00;;;;4910823;29;20234;-69
2022/04/14 05:32:21;;;;;;;36.73;16.43;;;;;13.60;101483.00;;;;4911658;29;20248;-70
2022/04/14 05:35:12;;;;;;;32.83;15.20;;;;;13.60;101492.00;;;;4925399;28;20737;-70
2022/04/14 05:37:59;;;;;;;42.33;17.63;;;;;13.60;101494.00;;;;4923341;28;20235;-71
2022/04/14 05:40:45;;;;;;;43.73;19.57;;;;;13.70;101499.00;;;;4930224;28;20855;-70
2022/04/14 05:43:31;;;;;;;52.53;20.90;;;;;13.80;101499.00;;;;4927658;28;20252;-67
2022/04/14 05:46:18;;;;;;;45.10;18.87;;;;;13.80;101501.00;;;;4930174;28;21018;-70
2022/04/14 05:49:04;;;;;;;56.10;22.43;;;;;13.80;101497.00;;;;4926112;28;20233;-71
2022/04/14 05:51:52;;;;;;;49.70;19.60;;;;;13.80;101500.00;;;;4926093;28;20232;-69
2022/04/14 05:54:38;;;;;;;52.60;22.17;;;;;13.80;101495.00;;;;4926170;28;20233;-70
2022/04/14 05:57:25;;;;;;;55.07;22.03;;;;;13.90;101495.00;;;;4912886;29;20251;-72
2022/04/14 06:00:13;;;;;;;62.43;23.70;;;;;13.90;101502.00;;;;4926980;28;20229;-71
2022/04/14 06:03:00;;;;;;;53.00;22.60;;;;;13.80;101494.00;;;;4923222;28;20733;-70
2022/04/14 06:05:47;;;;;;;51.43;21.43;;;;;13.80;101494.00;;;;4929697;28;20604;-69
2022/04/14 06:08:35;;;;;;;56.53;23.97;;;;;13.90;101498.00;;;;4929572;28;20234;-70
2022/04/14 06:11:21;;;;;;;58.53;23.43;;;;;13.90;101494.00;;;;4930214;28;20231;-70
2022/04/14 06:14:08;;;;;;;67.30;24.73;;;;;13.80;101488.00;;;;4924023;28;20233;-70
2022/04/14 06:16:54;;;;;;;58.57;23.07;;;;;14.00;101485.00;;;;4926072;28;20241;-69
2022/04/14 06:19:40;;;;;;;62.63;25.33;;;;;14.10;101498.00;;;;4911924;28;20728;-70
2022/04/14 06:22:27;;;;;;;65.53;25.83;;;;;14.10;101494.00;;;;4910431;29;20401;-70
2022/04/14 06:25:17;;;;;;;64.73;25.97;;;;;14.20;101469.00;;;;4910428;29;20237;-70
2022/04/14 06:28:03;;;;;;;72.37;26.40;;;;;14.10;101503.00;;;;4922566;28;20716;-70
2022/04/14 06:30:51;;;;;;;70.20;26.43;;;;;14.20;101501.00;;;;4929270;28;20240;-71
2022/04/14 06:33:38;;;;;;;72.07;27.93;;;;;14.10;101497.00;;;;4928931;28;20855;-70
2022/04/14 06:36:24;;;;;;;72.83;26.97;;;;;14.30;101501.00;;;;4929031;28;20369;-72
2022/04/14 06:39:12;;;;;;;71.53;26.90;;;;;14.20;101505.00;;;;4909529;29;20233;-70
2022/04/14 06:42:00;;;;;;;69.07;26.77;;;;;14.20;101506.00;;;;4910211;29;20234;-70
2022/04/14 06:44:46;;;;;;;81.43;28.50;;;;;14.20;101512.00;;;;4927814;28;20616;-70
2022/04/14 06:47:32;;;;;;;32.20;15.07;;;;;14.30;101502.00;;;;4912235;28;20314;-70
2022/04/14 06:50:19;;;;;;;127.00;32.40;;;;;14.30;101505.00;;;;4911957;28;20383;-69
2022/04/14 06:53:05;;;;;;;56.60;18.83;;;;;14.40;101511.00;;;;4924396;28;20749;-69
2022/04/14 06:55:53;;;;;;;375.67;50.17;;;;;14.50;101509.00;;;;4922948;28;20231;-70
2022/04/14 06:58:42;;;;;;;423.97;34.33;;;;;14.50;101518.00;;;;4911825;29;20621;-71
2022/04/14 07:01:28;;;;;;;59.23;20.80;;;;;14.30;101517.00;;;;4909987;29;20304;-70
2022/04/14 07:04:14;;;;;;;69.73;21.33;;;;;14.30;101516.00;;;;4910161;29;20224;-72
2022/04/14 07:07:01;;;;;;;63.50;21.53;;;;;14.40;101520.00;;;;4921300;28;20225;-71
2022/04/14 07:09:47;;;;;;;64.67;20.33;;;;;14.30;101519.00;;;;4928395;28;20244;-71
2022/04/14 07:12:33;;;;;;;55.07;19.80;;;;;14.30;101523.00;;;;4928240;28;20242;-70
2022/04/14 07:15:21;;;;;;;58.00;20.60;;;;;14.40;101523.00;;;;4928672;28;20237;-70
2022/04/14 07:18:07;;;;;;;57.13;19.30;;;;;14.40;101535.00;;;;4916805;28;20229;-70
2022/04/14 07:20:53;;;;;;;65.57;20.30;;;;;14.50;101526.00;;;;4927976;28;20306;-70
2022/04/14 07:23:40;;;;;;;54.90;19.67;;;;;14.40;101521.00;;;;4911315;28;20237;-70
2022/04/14 07:26:26;;;;;;;56.80;20.63;;;;;14.40;101523.00;;;;4909248;29;20943;-70
2022/04/14 07:29:12;;;;;;;65.63;22.33;;;;;14.50;101529.00;;;;4921931;28;20289;-71
2022/04/14 07:32:00;;;;;;;56.67;18.70;;;;;14.50;101526.00;;;;4914595;28;20714;-72
2022/04/14 07:34:47;;;;;;;59.33;19.30;;;;;14.60;101529.00;;;;4911206;29;20724;-72
2022/04/14 07:37:33;;;;;;;61.07;21.27;;;;;14.60;101512.00;;;;4927417;28;20333;-73
2022/04/14 07:40:20;;;;;;;66.63;20.90;;;;;14.60;101513.00;;;;4923067;28;20236;-71
2022/04/14 07:43:06;;;;;;;59.30;20.73;;;;;14.80;101537.00;;;;4921030;28;20747;-73
2022/04/14 07:45:53;;;;;;;56.73;20.13;;;;;14.90;101530.00;;;;4926729;28;20238;-72
2022/04/14 07:48:40;;;;;;;61.23;20.40;;;;;15.20;101530.00;;;;4927434;28;20240;-72
2022/04/14 07:51:26;;;;;;;57.17;20.17;;;;;15.10;101531.00;;;;4927445;28;20307;-71
2022/04/14 07:54:13;;;;;;;57.53;19.57;;;;;15.20;101535.00;;;;4916891;28;20241;-72
2022/04/14 07:57:00;;;;;;;57.37;18.83;;;;;15.20;101532.00;;;;4908479;29;20337;-71
2022/04/14 07:59:47;;;;;;;60.57;21.03;;;;;15.40;101531.00;;;;4908539;29;20250;-72
2022/04/14 08:02:33;;;;;;;62.43;20.87;;;;;15.40;101539.00;;;;4908679;29;20241;-72
2022/04/14 08:05:22;;;;;;;60.07;22.00;;;;;15.70;101524.00;;;;4910174;28;20234;-71
2022/04/14 08:08:09;;;;;;;57.03;20.43;;;;;16.00;101536.00;;;;4920723;28;20493;-71
2022/04/14 08:11:01;;;;;;;58.77;20.37;;;;;16.00;101535.00;;;;4925473;28;20250;-71
2022/04/14 08:13:47;;;;;;;61.57;20.00;;;;;16.00;101531.00;;;;4927456;28;20236;-72
2022/04/14 08:16:34;;;;;;;49.90;19.10;;;;;16.30;101527.00;;;;4927015;28;20764;-71
2022/04/14 08:19:20;;;;;;;54.53;19.77;;;;;16.50;101526.00;;;;4919889;28;20236;-72
2022/04/14 08:22:08;;;;;;;58.27;20.90;;;;;16.70;101527.00;;;;4911930;28;20589;-70
2022/04/14 08:24:54;;;;;;;52.90;20.53;;;;;16.60;101520.00;;;;4924454;28;20235;-70
2022/04/14 08:27:41;;;;;;;52.87;20.40;;;;;16.90;101520.00;;;;4926236;28;20369;-73
2022/04/14 08:30:29;;;;;;;54.07;20.23;;;;;16.90;101522.00;;;;4927055;28;20362;-70
2022/04/14 08:33:16;;;;;;;50.87;20.23;;;;;16.80;101516.00;;;;4927405;28;21110;-68
2022/04/14 08:36:03;;;;;;;51.67;19.53;;;;;16.80;101520.00;;;;4919323;28;20241;-69
2022/04/14 08:38:51;;;;;;;53.20;19.30;;;;;16.80;101527.00;;;;4925840;28;20253;-70
2022/04/14 08:41:40;;;;;;;53.93;19.67;;;;;16.70;101538.00;;;;4923385;28;20251;-71
2022/04/14 08:44:31;;;;;;;61.07;22.17;;;;;17.00;101533.00;;;;4922381;28;20625;-69
2022/04/14 08:47:17;;;;;;;54.00;21.13;;;;;17.10;101529.00;;;;4920919;28;20737;-68
2022/04/14 08:50:05;;;;;;;51.87;19.93;;;;;17.10;101541.00;;;;4907726;29;20256;-70
2022/04/14 08:52:52;;;;;;;53.90;21.03;;;;;16.90;101530.00;;;;4916631;28;20377;-70
2022/04/14 08:55:42;;;;;;;52.67;21.13;;;;;16.60;101531.00;;;;4919049;28;20229;-70
2022/04/14 08:58:29;;;;;;;52.93;21.73;;;;;16.60;101536.00;;;;4926643;28;20244;-68
2022/04/14 09:01:16;;;;;;;52.50;21.40;;;;;16.60;101535.00;;;;4926869;28;20234;-69
2022/04/14 09:04:11;;;;;;;52.40;20.77;;;;;16.50;101534.00;;;;4920175;28;20606;-68
2022/04/14 09:06:58;;;;;;;50.20;21.20;;;;;16.60;101531.00;;;;4926772;28;20931;-71
2022/04/14 09:09:50;;;;;;;46.70;20.03;;;;;16.30;101535.00;;;;4925043;28;20678;-70
2022/04/14 09:12:38;;;;;;;47.50;20.30;;;;;16.20;101541.00;;;;4913393;28;20978;-70
2022/04/14 09:15:24;;;;;;;53.33;21.40;;;;;16.10;101536.00;;;;4921887;28;20738;-70
2022/04/14 09:18:16;;;;;;;59.67;22.43;;;;;16.50;101542.00;;;;4914068;28;20678;-67
2022/04/14 09:21:04;;;;;;;63.60;22.37;;;;;16.80;101533.00;;;;4926208;28;20301;-71
2022/04/14 09:23:51;;;;;;;55.57;22.20;;;;;17.00;101535.00;;;;4908765;29;20355;-69
2022/04/14 09:26:40;;;;;;;60.77;23.90;;;;;17.20;101529.00;;;;4907440;29;20359;-70
2022/04/14 09:29:33;;;;;;;57.90;22.17;;;;;17.50;101527.00;;;;4907727;29;20289;-69
2022/04/14 09:32:33;;;;;;;56.57;21.67;;;;;17.70;101526.00;;;;4920711;28;20237;-70
2022/04/14 09:35:21;;;;;;;52.80;20.73;;;;;17.80;101525.00;;;;4926862;28;20595;-66
2022/04/14 09:38:13;;;;;;;45.43;20.13;;;;;18.10;101522.00;;;;4918416;28;20229;-69
2022/04/14 09:40:59;;;;;;;49.53;19.30;;;;;18.30;101526.00;;;;4926665;28;20257;-69
2022/04/14 09:43:53;;;;;;;45.17;19.57;;;;;18.50;101523.00;;;;4926204;28;20245;-69
2022/04/14 09:46:44;;;;;;;40.87;18.60;;;;;18.40;101525.00;;;;4926304;28;20312;-70
2022/04/14 09:49:30;;;;;;;44.30;18.40;;;;;18.40;101514.00;;;;4926526;28;20253;-70
2022/04/14 09:52:16;;;;;;;39.97;16.90;;;;;18.70;101511.00;;;;4907592;29;20723;-68
2022/04/14 09:55:08;;;;;;;36.03;15.53;;;;;18.60;101515.00;;;;4910597;29;20716;-69
2022/04/14 09:58:12;;;;;;;35.03;15.17;;;;;18.70;101511.00;;;;4910851;29;20229;-69
2022/04/14 10:00:59;;;;;;;25.83;12.33;;;;;18.70;101507.00;;;;4913235;29;20317;-69
2022/04/14 10:03:51;;;;;;;24.80;12.40;;;;;18.90;101508.00;;;;4910978;29;20249;-70
2022/04/14 10:06:37;;;;;;;28.00;13.17;;;;;19.00;101509.00;;;;4910804;29;20237;-69
2022/04/14 10:09:28;;;;;;;25.93;11.63;;;;;19.30;101501.00;;;;4924225;28;20286;-69
2022/04/14 10:12:27;;;;;;;26.00;12.13;;;;;19.40;101519.00;;;;4922859;28;20340;-70
2022/04/14 10:15:15;;;;;;;24.57;11.37;;;;;19.40;101506.00;;;;4921005;28;20229;-71
2022/04/14 10:18:04;;;;;;;22.53;11.37;;;;;19.50;101500.00;;;;4913608;28;20232;-68
2022/04/14 10:20:52;;;;;;;24.93;12.07;;;;;19.60;101495.00;;;;4927238;28;20318;-68
2022/04/14 10:23:39;;;;;;;19.50;10.67;;;;;19.60;101496.00;;;;4914340;28;20237;-70
2022/04/14 10:26:26;;;;;;;18.60;10.07;;;;;19.70;101502.00;;;;4923587;28;20237;-70
2022/04/14 10:29:15;;;;;;;13.53;8.03;;;;;19.70;101498.00;;;;4922180;28;20228;-69
2022/04/14 10:32:03;;;;;;;11.13;6.10;;;;;19.60;101490.00;;;;4926679;28;20288;-69
2022/04/14 10:34:50;;;;;;;10.17;5.20;;;;;19.10;101502.00;;;;4918489;28;20762;-66
2022/04/14 10:37:42;;;;;;;8.50;5.27;;;;;19.00;101492.00;;;;4912359;29;20233;-71
2022/04/14 10:40:30;;;;;;;8.47;5.10;;;;;19.30;101483.00;;;;4911868;29;20238;-73
2022/04/14 10:43:21;;;;;;;7.77;4.80;;;;;19.70;101488.00;;;;4921671;28;20229;-70
2022/04/14 10:46:07;;;;;;;9.00;4.67;;;;;19.90;101481.00;;;;4925441;28;20254;-69
2022/04/14 10:49:11;;;;;;;6.70;3.77;;;;;19.90;101473.00;;;;4915384;28;20237;-70
2022/04/14 10:52:24;;;;;;;5.40;3.67;;;;;20.20;101467.00;;;;4911891;29;20229;-71
2022/04/14 10:55:11;;;;;;;5.70;3.83;;;;;20.60;101472.00;;;;4921135;28;20294;-70
2022/04/14 10:57:58;;;;;;;6.37;4.23;;;;;20.70;101468.00;;;;4925848;28;20249;-71
2022/04/14 11:00:44;;;;;;;7.40;4.00;;;;;20.70;101476.00;;;;4928682;28;20249;-70
2022/04/14 11:03:46;;;;;;;5.93;4.00;;;;;20.70;101492.00;;;;4917640;28;20241;-70
2022/04/14 11:06:49;;;;;;;7.40;4.33;;;;;20.90;101450.00;;;;4922544;28;20233;-68
2022/04/14 11:09:57;;;;;;;4.90;3.73;;;;;21.10;101494.00;;;;4916338;28;20292;-69
2022/04/14 11:12:57;;;;;;;4.43;3.00;;;;;20.60;101494.00;;;;4924444;28;20266;-70
2022/04/14 11:15:43;;;;;;;3.57;2.60;;;;;20.60;101489.00;;;;4922256;28;20367;-73
2022/04/14 11:18:29;;;;;;;4.33;3.13;;;;;20.80;101478.00;;;;4914456;28;20241;-70
2022/04/14 11:21:31;;;;;;;4.43;2.37;;;;;20.90;101479.00;;;;4920547;28;20252;-69
2022/04/14 11:24:17;;;;;;;2.70;2.13;;;;;21.50;101488.00;;;;4908678;29;20242;-70
2022/04/14 11:27:12;;;;;;;3.00;2.10;;;;;21.70;101495.00;;;;4908345;29;20279;-70
2022/04/14 11:30:03;;;;;;;3.30;1.70;;;;;22.10;101506.00;;;;4918504;28;20238;-70
2022/04/14 11:32:49;;;;;;;3.73;1.90;;;;;22.10;101507.00;;;;4913883;28;20247;-71
2022/04/14 11:35:47;;;;;;;3.10;2.00;;;;;21.30;101500.00;;;;4908709;29;20604;-69
2022/04/14 11:38:59;;;;;;;2.70;1.70;;;;;20.90;101505.00;;;;4922897;28;20314;-70
2022/04/14 11:41:49;;;;;;;2.80;2.07;;;;;20.90;101495.00;;;;4909948;29;20242;-69
2022/04/14 11:44:36;;;;;;;4.07;2.50;;;;;21.20;101498.00;;;;4910143;28;20251;-71
2022/04/14 11:47:23;;;;;;;4.50;2.67;;;;;21.10;101509.00;;;;4909365;29;20368;-70
2022/04/14 11:50:10;;;;;;;3.10;2.10;;;;;21.30;101497.00;;;;4908234;28;20293;-72
2022/04/14 11:52:57;;;;;;;2.93;2.00;;;;;21.60;101494.00;;;;4907666;28;20231;-71
2022/04/14 11:55:44;;;;;;;5.17;1.87;;;;;22.00;101487.00;;;;4910895;28;20610;-72
2022/04/14 11:58:30;;;;;;;2.30;1.77;;;;;22.40;101502.00;;;;4908027;29;20243;-70
2022/04/14 12:01:17;;;;;;;3.60;1.80;;;;;22.50;101503.00;;;;4909316;29;20386;-69
2022/04/14 12:04:08;;;;;;;2.50;1.90;;;;;22.60;101503.00;;;;4908013;29;20368;-69
2022/04/14 12:06:56;;;;;;;2.37;1.77;;;;;22.90;101504.00;;;;4908566;29;20232;-69
2022/04/14 12:09:43;;;;;;;2.40;1.80;;;;;23.30;101503.00;;;;4911318;29;20648;-69
2022/04/14 12:12:31;;;;;;;2.07;1.90;;;;;22.80;101499.00;;;;4914484;28;20256;-70
2022/04/14 12:15:18;;;;;;;3.03;2.23;;;;;22.80;101504.00;;;;4927888;28;20306;-70
2022/04/14 12:18:08;;;;;;;2.63;2.20;;;;;22.60;101501.00;;;;4923242;28;20578;-66
2022/04/14 12:20:55;;;;;;;7.30;2.57;;;;;22.60;101506.00;;;;4925416;28;20241;-70
2022/04/14 12:23:47;;;;;;;5.13;3.20;;;;;22.40;101511.00;;;;4920238;28;20243;-71
2022/04/14 12:26:35;;;;;;;5.93;3.33;;;;;21.80;101504.00;;;;4914166;29;20237;-71
2022/04/14 12:29:22;;;;;;;6.77;3.87;;;;;21.50;101509.00;;;;4920602;29;20920;-68
2022/04/14 12:32:13;;;;;;;5.33;3.53;;;;;21.30;101511.00;;;;4927271;28;20233;-72
2022/04/14 12:34:59;;;;;;;5.23;3.67;;;;;21.20;101517.00;;;;4927490;28;20382;-70
2022/04/14 12:37:51;;;;;;;8.63;3.80;;;;;21.20;101513.00;;;;4927004;28;20258;-65
2022/04/14 12:40:37;;;;;;;4.30;3.30;;;;;21.10;101509.00;;;;4922068;28;20247;-70
2022/04/14 12:43:26;;;;;;;5.53;3.40;;;;;21.50;101513.00;;;;4912251;29;20603;-70
2022/04/14 12:46:24;;;;;;;4.40;3.10;;;;;22.00;101501.00;;;;4911128;28;20239;-73
2022/04/14 12:49:12;;;;;;;4.30;2.90;;;;;22.50;101514.00;;;;4915517;28;20880;-75
2022/04/14 12:52:09;;;;;;;3.73;2.87;;;;;22.50;101507.00;;;;4916902;29;20239;-72
2022/04/14 12:54:58;;;;;;;5.53;2.73;;;;;22.30;101508.00;;;;4924175;28;20946;-72
2022/04/14 12:57:44;;;;;;;5.00;2.87;;;;;22.20;101501.00;;;;4916084;28;20754;-72
2022/04/14 13:00:31;;;;;;;4.07;2.70;;;;;22.00;101501.00;;;;4905590;29;20343;-72
2022/04/14 13:03:19;;;;;;;4.70;3.07;;;;;21.70;101501.00;;;;4909135;29;20703;-71
2022/04/14 13:06:16;;;;;;;6.23;3.30;;;;;21.50;101516.00;;;;4911819;28;20249;-74
2022/04/14 13:09:13;;;;;;;7.37;3.70;;;;;21.20;101506.00;;;;4908975;29;20232;-72
2022/04/14 13:12:01;;;;;;;5.27;3.60;;;;;21.10;101516.00;;;;4909672;29;20293;-72
2022/04/14 13:14:48;;;;;;;5.30;3.67;;;;;20.90;101500.00;;;;4909746;29;20243;-73
2022/04/14 13:17:49;;;;;;;6.73;3.40;;;;;21.20;101503.00;;;;4909266;29;20243;-72
2022/04/14 13:20:37;;;;;;;6.53;3.73;;;;;21.50;101507.00;;;;4909223;28;20312;-71
2022/04/14 13:23:23;;;;;;;6.10;3.40;;;;;21.80;101502.00;;;;4908771;29;20725;-73
2022/04/14 13:26:09;;;;;;;8.00;3.70;;;;;22.40;101506.00;;;;4910940;29;20234;-72
2022/04/14 13:28:56;;;;;;;5.10;3.43;;;;;22.80;101504.00;;;;4911880;29;20396;-71
2022/04/14 13:31:43;;;;;;;7.13;3.33;;;;;22.70;101499.00;;;;4913648;29;20234;-69
2022/04/14 13:34:29;;;;;;;6.07;3.67;;;;;23.00;101508.00;;;;4923982;28;20277;-70
2022/04/14 13:37:21;;;;;;;4.17;3.07;;;;;23.20;101508.00;;;;4916114;28;20242;-72
2022/04/14 13:40:09;;;;;;;4.10;2.83;;;;;23.10;101484.00;;;;4928434;28;20784;-73